Terminal Aerodrome Forecast
Issued by NWS

Home | Current Version | Previous Version | Text Only | Print | Product List | Glossary On
Versions: 1 2 3 4 5 6 7 8 9 10 11 12 13 14 15 16 17
000
FTUS44 KCRP 021729
TAFLRD
TAF
KLRD 021729Z 0218/0318 11008KT P6SM BKN050
     FM030100 11012KT P6SM FEW090 SCT200
     FM030900 14006KT P6SM SCT010
     FM031400 14007KT P6SM BKN020
     FM031600 15007KT P6SM BKN040=

USA.gov is the U.S. government's official web portal to all federal, state and local government web resources and services.